Terminal Aerodrome Forecast
Issued by NWS

Home | Current Version | Previous Version | Text Only | Print | Product List | Glossary On
Versions: 1 2 3 4 5 6 7 8 9 10 11 12 13 14 15 16 17 18 19 20 21 22 23 24 25 26 27 28 29 30 31
219
FTUS43 KLSX 171724
TAFUIN
TAF
KUIN 171724Z 1718/1818 27012KT P6SM OVC008
     FM180300 29006KT P6SM BKN010
     FM180800 27005KT 5SM BR BKN030
     FM181000 26005KT 4SM BR SCT030
     FM181300 23004KT 2SM BR SCT030
     FM181500 20005KT 4SM BR SCT008
     FM181600 20006KT P6SM SCT020=

USA.gov is the U.S. government's official web portal to all federal, state and local government web resources and services.